Raleigh, NC

4:36 AM EDT on October 26, 2014 (GMT -0400)
Williams | Change Station
CLOSE
Current Station
Airport
Location: Chapel Hill,
Elevation: 512 ft
Nearby Weather Stations

Elev 512 ft 35.93 °N, 79.06 °W | Updated 40 minutes ago

Clear
Clear
56 °F
Feels Like 56 °F
N
6
Wind Variable Wind from West

Today
High -- | Low -- °F
--% Chance of Precip.
Yesterday
High -- | Low -- °F
Precip. -- in
7:30 AM 6:25 PM
Waxing Crescent, 6% visible
Pressure 29.82 in
Visibility 10.0 miles
Clouds Clear
Dew Point 47 °F
Humidity 72%
Rainfall 0.00 in
Snow Depth Not available.
UV 0 out of 12
Pollen 1.00 out of 12
Ozone Good
PM2.5 Good
Flu Activity Local Activity
METAR KIGX 260756Z AUTO 27005KT 10SM CLR 13/08 A2983 RMK AO2 SLP096 T01330083

More Conditions Fewer Conditions

Pressure 29.82 in
Visibility 10.0 miles
Clouds Clear
Dew Point 47 °F
Humidity 72%
Rainfall 0.00 in
Snow Depth Not available.
UV 0 out of 12
Pollen 1.00 out of 12
Ozone Good
PM2.5 Good
Flu Activity Local Activity
METAR KIGX 260756Z AUTO 27005KT 10SM CLR 13/08 A2983 RMK AO2 SLP096 T01330083

More Conditions Fewer Conditions

10-Day Weather Forecast

Almanac

Astronomy

Oct. 26, 2014 Rise Set
Actual Time 7:30 AM EDT 6:25 PM EDT
Civil Twilight 7:04 AM EDT 6:51 PM EDT
Nautical Twilight 6:34 AM EDT 7:21 PM EDT
Astronomical Twilight 6:05 AM EDT 7:51 PM EDT
Moon 10:03 AM EDT 8:39 PM EDT
Length of Visible Light 11h 46m
Length of Day
10h 54m
Tomorrow will be 2m 3s shorter.
Waxing Crescent, 6% of the Moon is Illuminated
Today
Waxing Crescent
Oct 30
First Quarter
Nov 6
Full
Nov 14
Last Quarter
Nov 22
New

Today's Extremes

State Highs State Lows

Community

WunderPhotos

Upload Photos

1,765,127 photos uploaded!

Nearby

Air Quality

  Air Quality AQ Index Pollutant
Yesterday Good
OZONE
Yesterday Good
PM2.5
Current Good
PM2.5
Current Good
OZONE
Sunday Good
PM2.5
Sunday Good
OZONE
Monday Good
PM2.5
Monday Good
OZONE
Tuesday Moderate
PM2.5
Tuesday Good
OZONE

Snow Depth

Station Depth Elevation
No new snow has been reported.

Earthquake Activity

City Distance Mag. Time & Date
No recent earthquake activity has been reported nearby.
Minimum magnitude displayed is 2.5.

Coastal Water Temperatures

Place Temperature
No Stations Reporting

Nearby Weather Stations